Time;durP1;ratioP1;P1;durP2;ratioP2;P2;SDS_P1;SDS_P2;PMS_P1;PMS_P2;Temp;Humidity;BMP_temperature;BMP_pressure;BME280_temperature;BME280_humidity;BME280_pressure;Samples;Min_cycle;Max_cycle;Signal;HPM_P1;HPM_P2
2021/12/16 00:03:30;;;;;;;;;;;24.00;49.90;;;;;;1626401;71;1204;-66
2021/12/16 00:05:28;;;;;;;;;;;24.00;49.90;;;;;;1615182;71;1442;-69
2021/12/16 00:07:20;;;;;;;;;;;24.00;49.80;;;;;;1627765;71;1902;-66
2021/12/16 00:09:15;;;;;;;;;;;23.90;49.80;;;;;;1614934;71;1681;-66
2021/12/16 00:32:04;;;;;;;;;;;24.00;49.90;;;;;;1620317;71;1138;-66
2021/12/16 00:34:02;;;;;;;;;;;24.00;49.90;;;;;;1617860;71;1820;-66
2021/12/16 00:36:04;;;;;;;;;;;24.00;49.90;;;;;;1627582;71;717;-66
2021/12/16 00:38:06;;;;;;;;;;;23.90;49.90;;;;;;1632164;71;768;-66
2021/12/16 00:40:08;;;;;;;;;;;24.00;49.90;;;;;;1641696;71;805;-66
2021/12/16 00:42:23;;;;;;;;;;;24.00;49.80;;;;;;1637324;71;1133;-66
2021/12/16 00:44:48;;;;;;;;;;;24.00;49.70;;;;;;1631630;71;1631;-69
2021/12/16 00:49:05;;;;;;;;;;;24.00;49.50;;;;;;1639860;71;833;-67
2021/12/16 00:55:26;;;;;;;;;;;24.00;49.40;;;;;;1631705;71;1655;-66
2021/12/16 00:57:16;;;;;;;;;;;23.90;49.40;;;;;;1632085;71;1748;-66
2021/12/16 00:59:20;;;;;;;;;;;23.90;49.40;;;;;;1617514;71;826;-67
2021/12/16 01:06:02;;;;;;;;;;;23.90;49.40;;;;;;1620052;71;1917;-69
2021/12/16 01:33:33;;;;;;;;;;;24.00;49.40;;;;;;1635317;71;1701;-68
2021/12/16 01:40:29;;;;;;;;;;;24.00;49.60;;;;;;1641168;71;1668;-70
2021/12/16 01:49:16;;;;;;;;;;;23.90;49.50;;;;;;1630602;71;874;-67
2021/12/16 01:52:00;;;;;;;;;;;23.90;49.50;;;;;;1630448;71;1726;-67
2021/12/16 01:53:38;;;;;;;;;;;23.90;49.50;;;;;;1611065;71;1445;-67
2021/12/16 01:55:27;;;;;;;;;;;23.90;49.50;;;;;;1622734;71;1487;-67
2021/12/16 01:57:31;;;;;;;;;;;23.90;49.50;;;;;;1625812;71;1638;-68
2021/12/16 01:59:35;;;;;;;;;;;23.90;49.60;;;;;;1640784;71;1579;-67
2021/12/16 02:01:35;;;;;;;;;;;23.90;49.50;;;;;;1631178;71;1493;-67
2021/12/16 02:03:43;;;;;;;;;;;23.90;49.60;;;;;;1634836;71;2023;-67
2021/12/16 02:09:56;;;;;;;;;;;23.90;49.50;;;;;;1626281;71;897;-73
2021/12/16 02:12:42;;;;;;;;;;;24.00;49.60;;;;;;1632200;71;1588;-73
2021/12/16 02:32:49;;;;;;;;;;;23.90;49.70;;;;;;1626041;71;1217;-71
2021/12/16 02:36:56;;;;;;;;;;;23.90;49.80;;;;;;1624034;71;768;-71
2021/12/16 02:38:59;;;;;;;;;;;23.80;49.70;;;;;;1640152;71;800;-71
2021/12/16 02:41:01;;;;;;;;;;;23.90;49.80;;;;;;1630338;71;845;-71
2021/12/16 02:49:58;;;;;;;;;;;23.90;49.80;;;;;;1598630;73;1612;-65
2021/12/16 02:52:00;;;;;;;;;;;23.80;49.80;;;;;;1582868;73;1202;-68
2021/12/16 02:54:04;;;;;;;;;;;23.90;49.90;;;;;;1591306;74;786;-67
2021/12/16 02:56:06;;;;;;;;;;;23.90;49.90;;;;;;1588528;74;698;-67
2021/12/16 02:58:08;;;;;;;;;;;23.90;49.90;;;;;;1583705;74;710;-67
2021/12/16 03:00:14;;;;;;;;;;;23.90;49.80;;;;;;1595656;74;703;-67
2021/12/16 03:02:17;;;;;;;;;;;23.90;49.90;;;;;;1582065;74;1474;-67
2021/12/16 03:04:19;;;;;;;;;;;23.90;49.90;;;;;;1591361;73;743;-66
2021/12/16 03:06:21;;;;;;;;;;;23.90;49.90;;;;;;1584868;74;1921;-66
2021/12/16 03:08:25;;;;;;;;;;;23.90;49.90;;;;;;1594113;74;702;-66
2021/12/16 03:14:43;;;;;;;;;;;23.90;49.90;;;;;;1587463;73;869;-67
2021/12/16 03:19:22;;;;;;;;;;;23.90;50.00;;;;;;1586718;74;1641;-65
2021/12/16 03:21:27;;;;;;;;;;;23.90;50.00;;;;;;1576840;74;1604;-66
2021/12/16 03:23:58;;;;;;;;;;;23.90;50.10;;;;;;1588677;73;1671;-67
2021/12/16 03:38:27;;;;;;;;;;;24.00;50.30;;;;;;1579356;73;828;-63
2021/12/16 03:40:29;;;;;;;;;;;23.90;50.20;;;;;;1581747;74;732;-63
2021/12/16 03:42:35;;;;;;;;;;;24.00;50.10;;;;;;1581813;74;1142;-64
2021/12/16 03:44:52;;;;;;;;;;;24.00;50.10;;;;;;1590173;74;711;-65
2021/12/16 03:46:46;;;;;;;;;;;24.00;50.10;;;;;;1589344;73;1930;-66
2021/12/16 03:48:58;;;;;;;;;;;24.00;50.00;;;;;;1590947;73;833;-64
2021/12/16 03:51:00;;;;;;;;;;;24.10;50.10;;;;;;1579410;74;836;-63
2021/12/16 03:53:02;;;;;;;;;;;24.10;50.00;;;;;;1579515;74;1148;-63
2021/12/16 03:55:04;;;;;;;;;;;24.20;50.00;;;;;;1580910;74;892;-65
2021/12/16 03:57:07;;;;;;;;;;;24.20;49.90;;;;;;1578367;74;653;-65
2021/12/16 03:59:09;;;;;;;;;;;24.20;49.90;;;;;;1580519;74;718;-64
2021/12/16 04:01:12;;;;;;;;;;;24.20;49.80;;;;;;1585250;74;743;-63
2021/12/16 04:03:14;;;;;;;;;;;24.30;49.80;;;;;;1582118;73;1146;-64
2021/12/16 04:05:16;;;;;;;;;;;24.20;49.70;;;;;;1584487;73;794;-64
2021/12/16 04:07:19;;;;;;;;;;;24.30;49.90;;;;;;1588285;73;1923;-64
2021/12/16 04:09:21;;;;;;;;;;;24.30;49.80;;;;;;1582752;73;893;-64
2021/12/16 04:11:24;;;;;;;;;;;24.20;49.70;;;;;;1582567;73;652;-64
2021/12/16 04:13:26;;;;;;;;;;;24.30;49.70;;;;;;1583597;73;1156;-64
2021/12/16 04:15:28;;;;;;;;;;;24.30;49.60;;;;;;1583141;73;780;-66
2021/12/16 04:17:30;;;;;;;;;;;24.30;49.60;;;;;;1585934;73;740;-64
2021/12/16 04:19:32;;;;;;;;;;;24.30;49.50;;;;;;1585510;73;767;-64
2021/12/16 04:21:34;;;;;;;;;;;24.30;49.60;;;;;;1589563;73;692;-64
2021/12/16 04:23:36;;;;;;;;;;;24.40;49.50;;;;;;1590009;73;1016;-63
2021/12/16 04:25:39;;;;;;;;;;;24.40;49.50;;;;;;1581382;73;889;-64
2021/12/16 04:27:41;;;;;;;;;;;24.30;49.50;;;;;;1584577;73;2086;-63
2021/12/16 04:29:43;;;;;;;;;;;24.30;49.40;;;;;;1583089;73;746;-64
2021/12/16 04:31:45;;;;;;;;;;;24.30;49.40;;;;;;1585602;73;1143;-63
2021/12/16 04:33:47;;;;;;;;;;;24.40;49.40;;;;;;1584458;74;767;-64
2021/12/16 04:35:49;;;;;;;;;;;24.40;49.20;;;;;;1582955;74;893;-63
2021/12/16 04:37:51;;;;;;;;;;;24.40;49.20;;;;;;1578581;74;855;-63
2021/12/16 04:39:53;;;;;;;;;;;24.40;49.20;;;;;;1578221;74;770;-63
2021/12/16 04:41:55;;;;;;;;;;;24.40;49.20;;;;;;1583367;74;1141;-63
2021/12/16 04:43:57;;;;;;;;;;;24.50;49.20;;;;;;1582398;73;771;-64
2021/12/16 04:45:59;;;;;;;;;;;24.40;49.10;;;;;;1582781;74;770;-64
2021/12/16 04:48:02;;;;;;;;;;;24.50;49.10;;;;;;1584166;73;1946;-64
2021/12/16 04:50:04;;;;;;;;;;;24.50;49.00;;;;;;1601992;73;971;-64
2021/12/16 04:52:08;;;;;;;;;;;24.50;49.00;;;;;;1592128;74;1143;-65
2021/12/16 04:54:10;;;;;;;;;;;24.50;49.00;;;;;;1585992;73;789;-64
2021/12/16 04:56:12;;;;;;;;;;;24.50;49.00;;;;;;1587086;73;729;-64
2021/12/16 04:58:14;;;;;;;;;;;24.50;48.90;;;;;;1585410;74;709;-62
2021/12/16 05:00:18;;;;;;;;;;;24.50;48.90;;;;;;1596780;74;788;-63
2021/12/16 05:02:20;;;;;;;;;;;24.50;49.00;;;;;;1589368;73;1131;-62
2021/12/16 05:04:22;;;;;;;;;;;24.50;49.10;;;;;;1592409;73;733;-62
2021/12/16 05:06:24;;;;;;;;;;;24.40;49.10;;;;;;1590678;74;737;-62
2021/12/16 05:08:26;;;;;;;;;;;24.40;49.00;;;;;;1597361;74;1936;-63
2021/12/16 05:10:28;;;;;;;;;;;24.50;48.90;;;;;;1591802;74;648;-64
2021/12/16 05:12:33;;;;;;;;;;;24.50;48.90;;;;;;1594998;73;1139;-63
2021/12/16 05:14:33;;;;;;;;;;;24.50;48.90;;;;;;1594695;73;1665;-66
2021/12/16 05:16:35;;;;;;;;;;;24.50;49.10;;;;;;1586880;74;819;-64
2021/12/16 05:18:38;;;;;;;;;;;24.50;48.90;;;;;;1591613;73;801;-63
2021/12/16 05:20:42;;;;;;;;;;;24.50;48.90;;;;;;1585421;74;750;-63
2021/12/16 05:25:08;;;;;;;;;;;24.60;48.80;;;;;;1578984;73;1602;-62
2021/12/16 05:27:13;;;;;;;;;;;24.50;48.80;;;;;;1592096;74;1930;-64
2021/12/16 05:29:12;;;;;;;;;;;24.50;48.80;;;;;;1582194;74;1562;-63
2021/12/16 05:31:14;;;;;;;;;;;24.50;48.80;;;;;;1587125;74;730;-61
2021/12/16 05:33:16;;;;;;;;;;;24.50;48.70;;;;;;1590449;74;1079;-64
2021/12/16 05:35:19;;;;;;;;;;;24.50;48.70;;;;;;1586806;73;794;-63
2021/12/16 05:37:20;;;;;;;;;;;24.60;48.70;;;;;;1594763;74;793;-65
2021/12/16 05:39:22;;;;;;;;;;;24.60;48.70;;;;;;1592093;73;769;-63
2021/12/16 05:41:24;;;;;;;;;;;24.60;48.60;;;;;;1594787;74;709;-63
2021/12/16 05:43:26;;;;;;;;;;;24.50;48.70;;;;;;1583845;73;1115;-63
2021/12/16 05:45:29;;;;;;;;;;;24.50;48.80;;;;;;1596334;74;765;-63
2021/12/16 05:47:31;;;;;;;;;;;24.60;48.70;;;;;;1586201;74;1933;-63
2021/12/16 05:49:33;;;;;;;;;;;24.50;48.60;;;;;;1583555;74;737;-63
2021/12/16 05:51:35;;;;;;;;;;;24.60;48.50;;;;;;1590140;74;723;-63
2021/12/16 05:53:37;;;;;;;;;;;24.50;48.50;;;;;;1589141;74;1091;-63
2021/12/16 05:55:39;;;;;;;;;;;24.70;48.50;;;;;;1597510;73;711;-63
2021/12/16 05:57:41;;;;;;;;;;;24.60;48.40;;;;;;1586908;74;634;-63
2021/12/16 05:59:43;;;;;;;;;;;24.60;48.30;;;;;;1594132;74;769;-64
2021/12/16 06:01:46;;;;;;;;;;;24.70;48.40;;;;;;1582337;74;1162;-64
2021/12/16 06:03:48;;;;;;;;;;;24.50;48.40;;;;;;1590044;73;782;-64
2021/12/16 06:05:50;;;;;;;;;;;24.50;48.60;;;;;;1585625;73;755;-63
2021/12/16 06:07:52;;;;;;;;;;;24.40;48.80;;;;;;1592418;73;1932;-64
2021/12/16 06:09:54;;;;;;;;;;;24.50;48.70;;;;;;1592843;74;719;-63
2021/12/16 06:11:56;;;;;;;;;;;24.50;48.60;;;;;;1589617;73;1188;-63
2021/12/16 06:14:05;;;;;;;;;;;24.50;48.60;;;;;;1598637;73;786;-64
2021/12/16 06:27:23;;;;;;;;;;;24.30;49.20;;;;;;1550784;74;1933;-63
2021/12/16 06:29:24;;;;;;;;;;;24.30;49.20;;;;;;1584040;74;1526;-63
2021/12/16 06:31:26;;;;;;;;;;;24.30;49.30;;;;;;1599268;74;764;-63
2021/12/16 06:33:27;;;;;;;;;;;24.20;49.30;;;;;;1587303;74;1122;-64
2021/12/16 06:35:29;;;;;;;;;;;24.30;49.40;;;;;;1595066;73;715;-63
2021/12/16 06:37:33;;;;;;;;;;;24.20;49.30;;;;;;1590758;73;786;-68
2021/12/16 06:39:35;;;;;;;;;;;24.20;49.50;;;;;;1593998;74;761;-63
2021/12/16 06:41:37;;;;;;;;;;;24.30;49.70;;;;;;1595555;74;714;-64
2021/12/16 06:43:39;;;;;;;;;;;24.30;49.60;;;;;;1586124;74;1184;-64
2021/12/16 06:45:45;;;;;;;;;;;24.20;49.40;;;;;;1585455;73;765;-63
2021/12/16 06:47:50;;;;;;;;;;;24.30;49.40;;;;;;1581785;73;1908;-63
2021/12/16 06:49:50;;;;;;;;;;;24.20;49.30;;;;;;1590100;73;1483;-64
2021/12/16 06:52:00;;;;;;;;;;;24.20;49.30;;;;;;1599712;73;1684;-64
2021/12/16 06:54:05;;;;;;;;;;;24.20;49.20;;;;;;1594814;73;1581;-65
2021/12/16 06:56:13;;;;;;;;;;;24.20;49.20;;;;;;1588631;73;1698;-63
2021/12/16 06:58:23;;;;;;;;;;;24.20;49.20;;;;;;1587304;73;1715;-63
2021/12/16 07:00:29;;;;;;;;;;;24.20;49.20;;;;;;1593715;73;1696;-63
2021/12/16 07:04:37;;;;;;;;;;;24.20;49.20;;;;;;1596283;74;861;-63
2021/12/16 07:06:40;;;;;;;;;;;24.20;49.10;;;;;;1589956;74;747;-64
2021/12/16 07:08:41;;;;;;;;;;;24.20;49.10;;;;;;1594658;74;1937;-63
2021/12/16 07:10:45;;;;;;;;;;;24.20;49.10;;;;;;1589812;73;772;-63
2021/12/16 07:12:49;;;;;;;;;;;24.20;49.10;;;;;;1597812;74;1111;-63
2021/12/16 07:14:51;;;;;;;;;;;24.10;49.00;;;;;;1597937;73;773;-63
2021/12/16 07:16:57;;;;;;;;;;;24.10;49.00;;;;;;1592489;73;705;-63
2021/12/16 07:18:58;;;;;;;;;;;24.10;49.00;;;;;;1588689;73;1666;-67
2021/12/16 07:21:00;;;;;;;;;;;24.10;49.00;;;;;;1588742;74;811;-64
2021/12/16 07:23:02;;;;;;;;;;;24.10;49.00;;;;;;1599515;74;1143;-63
2021/12/16 07:25:05;;;;;;;;;;;24.10;49.00;;;;;;1583402;74;738;-64
2021/12/16 07:27:07;;;;;;;;;;;24.10;48.90;;;;;;1597836;73;754;-63
2021/12/16 07:29:09;;;;;;;;;;;24.10;49.00;;;;;;1594884;73;1948;-63
2021/12/16 07:31:10;;;;;;;;;;;24.10;49.00;;;;;;1597618;73;669;-64
2021/12/16 07:33:16;;;;;;;;;;;24.10;49.00;;;;;;1591359;73;1127;-62
2021/12/16 07:35:20;;;;;;;;;;;24.10;48.90;;;;;;1584714;73;746;-63
2021/12/16 07:37:21;;;;;;;;;;;24.10;48.90;;;;;;1592688;73;899;-63
2021/12/16 07:39:30;;;;;;;;;;;24.10;48.90;;;;;;1592041;74;659;-63
2021/12/16 07:41:32;;;;;;;;;;;24.10;48.90;;;;;;1592677;74;1402;-63
2021/12/16 07:45:51;;;;;;;;;;;24.10;48.90;;;;;;1591773;74;1598;-63
2021/12/16 07:47:53;;;;;;;;;;;24.10;49.00;;;;;;1583200;74;1937;-63
2021/12/16 07:49:55;;;;;;;;;;;24.00;48.90;;;;;;1600572;73;675;-63
2021/12/16 07:51:57;;;;;;;;;;;24.00;48.90;;;;;;1593308;73;1155;-63
2021/12/16 07:53:59;;;;;;;;;;;24.10;49.20;;;;;;1583579;74;780;-63
2021/12/16 07:56:01;;;;;;;;;;;24.20;49.40;;;;;;1591881;74;820;-63
2021/12/16 07:58:03;;;;;;;;;;;24.20;49.40;;;;;;1578191;74;709;-63
2021/12/16 08:00:07;;;;;;;;;;;24.10;49.40;;;;;;1593657;73;830;-63
2021/12/16 08:02:11;;;;;;;;;;;24.20;49.50;;;;;;1595906;73;1137;-63
2021/12/16 08:04:22;;;;;;;;;;;24.10;49.60;;;;;;1597052;74;2041;-64
2021/12/16 08:06:24;;;;;;;;;;;24.10;49.60;;;;;;1584014;73;1618;-64
2021/12/16 08:08:26;;;;;;;;;;;24.00;49.60;;;;;;1594726;73;1944;-63
2021/12/16 08:10:28;;;;;;;;;;;24.10;49.80;;;;;;1594017;73;784;-63
2021/12/16 08:12:30;;;;;;;;;;;24.10;49.80;;;;;;1593909;73;1174;-66
2021/12/16 08:14:32;;;;;;;;;;;24.00;49.70;;;;;;1595096;73;793;-63
2021/12/16 08:16:34;;;;;;;;;;;24.10;49.90;;;;;;1594450;73;809;-63
2021/12/16 08:18:36;;;;;;;;;;;24.10;49.90;;;;;;1588940;73;649;-64
2021/12/16 08:20:38;;;;;;;;;;;24.10;50.00;;;;;;1595282;73;712;-64
2021/12/16 08:22:40;;;;;;;;;;;24.10;50.00;;;;;;1588809;73;1131;-63
2021/12/16 08:24:42;;;;;;;;;;;24.10;50.00;;;;;;1578435;73;757;-64
2021/12/16 08:26:46;;;;;;;;;;;24.10;50.10;;;;;;1597792;74;790;-64
2021/12/16 08:28:47;;;;;;;;;;;24.10;50.10;;;;;;1583708;73;1932;-63
2021/12/16 08:30:50;;;;;;;;;;;24.10;50.00;;;;;;1592603;73;741;-63
2021/12/16 08:32:52;;;;;;;;;;;24.10;50.10;;;;;;1596073;74;1174;-63
2021/12/16 08:34:53;;;;;;;;;;;24.10;50.00;;;;;;1592478;73;704;-64
2021/12/16 08:36:55;;;;;;;;;;;24.10;50.40;;;;;;1586464;74;783;-64
2021/12/16 08:38:57;;;;;;;;;;;24.10;50.20;;;;;;1591287;73;795;-64
2021/12/16 08:41:01;;;;;;;;;;;24.10;50.20;;;;;;1592339;73;818;-64
2021/12/16 08:43:03;;;;;;;;;;;24.10;50.20;;;;;;1595925;70;2019;-73
2021/12/16 08:45:06;;;;;;;;;;;24.10;50.20;;;;;;1573747;74;773;-69
2021/12/16 08:47:09;;;;;;;;;;;24.10;50.20;;;;;;1575101;73;693;-68
2021/12/16 08:49:11;;;;;;;;;;;24.10;50.20;;;;;;1579486;74;1938;-70
2021/12/16 08:51:13;;;;;;;;;;;24.10;50.20;;;;;;1573963;74;696;-69
2021/12/16 08:53:15;;;;;;;;;;;24.10;50.20;;;;;;1567962;74;1216;-67
2021/12/16 08:55:17;;;;;;;;;;;24.10;50.20;;;;;;1557879;76;703;-69
2021/12/16 08:57:19;;;;;;;;;;;24.10;50.20;;;;;;1564231;74;1027;-69
2021/12/16 08:59:21;;;;;;;;;;;24.10;50.20;;;;;;1561555;76;772;-70
2021/12/16 09:01:24;;;;;;;;;;;24.10;50.20;;;;;;1564672;76;750;-69
2021/12/16 09:03:27;;;;;;;;;;;24.10;50.20;;;;;;1562426;76;1134;-69
2021/12/16 09:05:29;;;;;;;;;;;24.10;50.20;;;;;;1561258;76;706;-70
2021/12/16 09:07:30;;;;;;;;;;;24.10;50.20;;;;;;1566311;76;729;-72
2021/12/16 09:09:34;;;;;;;;;;;24.10;50.20;;;;;;1560881;76;1926;-70
2021/12/16 09:11:55;;;;;;;;;;;24.10;50.20;;;;;;1566581;76;1666;-70
2021/12/16 09:13:40;;;;;;;;;;;24.10;50.20;;;;;;1554220;74;1678;-71
2021/12/16 09:15:44;;;;;;;;;;;24.10;50.20;;;;;;1561691;76;738;-69
2021/12/16 09:17:46;;;;;;;;;;;24.10;50.20;;;;;;1564444;75;773;-69
2021/12/16 09:19:50;;;;;;;;;;;24.10;50.20;;;;;;1566180;76;718;-69
2021/12/16 09:21:51;;;;;;;;;;;24.20;50.20;;;;;;1561914;75;713;-70
2021/12/16 09:23:53;;;;;;;;;;;24.20;50.20;;;;;;1557265;76;1119;-71
2021/12/16 09:25:55;;;;;;;;;;;24.10;50.10;;;;;;1560124;75;757;-69
2021/12/16 09:27:57;;;;;;;;;;;24.10;50.20;;;;;;1566404;75;779;-69
2021/12/16 09:29:59;;;;;;;;;;;24.10;50.10;;;;;;1563106;74;1932;-68
2021/12/16 09:32:03;;;;;;;;;;;24.10;50.10;;;;;;1561654;76;782;-70
2021/12/16 09:34:07;;;;;;;;;;;24.10;50.20;;;;;;1553077;76;1696;-69
2021/12/16 09:36:08;;;;;;;;;;;24.10;50.20;;;;;;1566744;74;1642;-69
2021/12/16 09:38:10;;;;;;;;;;;24.10;50.20;;;;;;1563643;76;836;-69
2021/12/16 09:40:14;;;;;;;;;;;24.20;50.10;;;;;;1561166;76;802;-68
2021/12/16 09:42:16;;;;;;;;;;;24.20;50.10;;;;;;1551134;76;1165;-69
2021/12/16 09:44:18;;;;;;;;;;;24.20;50.10;;;;;;1560872;74;793;-68
2021/12/16 09:46:21;;;;;;;;;;;24.20;50.10;;;;;;1564164;76;771;-69
2021/12/16 09:48:23;;;;;;;;;;;24.20;50.10;;;;;;1563468;74;1930;-71
2021/12/16 09:50:26;;;;;;;;;;;24.20;50.20;;;;;;1563981;76;681;-68
2021/12/16 09:52:28;;;;;;;;;;;24.20;50.10;;;;;;1565866;74;1198;-67
2021/12/16 09:54:31;;;;;;;;;;;24.00;50.00;;;;;;1566550;74;761;-71
2021/12/16 09:56:32;;;;;;;;;;;24.20;50.10;;;;;;1561863;74;719;-69
2021/12/16 09:58:35;;;;;;;;;;;24.10;50.10;;;;;;1566657;74;714;-70
2021/12/16 10:00:37;;;;;;;;;;;24.10;50.10;;;;;;1558536;76;750;-69
2021/12/16 10:02:38;;;;;;;;;;;24.10;50.20;;;;;;1557476;74;1160;-69
2021/12/16 10:04:41;;;;;;;;;;;24.10;50.10;;;;;;1558337;74;722;-69
2021/12/16 10:06:42;;;;;;;;;;;24.20;50.10;;;;;;1558605;74;737;-69
2021/12/16 10:08:45;;;;;;;;;;;24.10;50.10;;;;;;1565061;76;1951;-70
2021/12/16 10:10:46;;;;;;;;;;;24.00;50.00;;;;;;1560665;74;739;-69
2021/12/16 10:12:50;;;;;;;;;;;24.10;50.10;;;;;;1561330;74;1178;-69
2021/12/16 10:19:21;;;;;;;;;;;24.00;50.00;;;;;;1560382;74;747;-71
2021/12/16 10:21:23;;;;;;;;;;;24.10;50.10;;;;;;1562932;76;714;-69
2021/12/16 10:23:28;;;;;;;;;;;24.10;50.10;;;;;;1565898;75;1164;-69
2021/12/16 10:25:32;;;;;;;;;;;24.10;50.20;;;;;;1555550;75;780;-68
2021/12/16 10:27:34;;;;;;;;;;;24.00;50.00;;;;;;1555735;74;790;-69
2021/12/16 10:29:36;;;;;;;;;;;24.10;50.10;;;;;;1565773;76;1918;-71
2021/12/16 10:31:38;;;;;;;;;;;24.10;50.10;;;;;;1564825;76;743;-68
2021/12/16 10:33:44;;;;;;;;;;;24.10;50.20;;;;;;1566461;76;1162;-70
2021/12/16 10:35:47;;;;;;;;;;;24.10;50.10;;;;;;1556892;75;769;-69
2021/12/16 10:37:54;;;;;;;;;;;24.10;50.20;;;;;;1556209;76;841;-69
2021/12/16 10:39:57;;;;;;;;;;;24.10;50.10;;;;;;1560829;74;777;-69
2021/12/16 10:42:00;;;;;;;;;;;24.10;50.20;;;;;;1566711;74;1717;-70
2021/12/16 10:44:04;;;;;;;;;;;24.10;50.20;;;;;;1553394;76;1123;-69
2021/12/16 10:46:08;;;;;;;;;;;24.10;50.10;;;;;;1560548;76;730;-69
2021/12/16 10:48:14;;;;;;;;;;;24.10;50.20;;;;;;1556343;74;732;-68
2021/12/16 10:50:16;;;;;;;;;;;24.10;50.10;;;;;;1562483;76;1928;-69
2021/12/16 10:52:20;;;;;;;;;;;24.10;50.10;;;;;;1561885;76;1132;-68
2021/12/16 10:54:23;;;;;;;;;;;24.10;50.10;;;;;;1563923;76;1846;-68
2021/12/16 10:56:26;;;;;;;;;;;24.10;50.10;;;;;;1556690;74;772;-67
2021/12/16 10:58:47;;;;;;;;;;;24.00;50.00;;;;;;1560661;74;1309;-69
2021/12/16 11:00:49;;;;;;;;;;;24.20;50.00;;;;;;1557874;76;858;-68
2021/12/16 11:02:51;;;;;;;;;;;24.10;50.10;;;;;;1565221;76;1277;-68
2021/12/16 11:04:53;;;;;;;;;;;24.10;50.10;;;;;;1565230;74;711;-68
2021/12/16 11:07:03;;;;;;;;;;;24.20;50.10;;;;;;1554003;76;715;-67
2021/12/16 11:09:23;;;;;;;;;;;24.10;50.10;;;;;;1561105;76;1943;-69
2021/12/16 11:11:31;;;;;;;;;;;24.10;50.10;;;;;;1563905;76;757;-69
2021/12/16 11:13:32;;;;;;;;;;;24.10;50.10;;;;;;1556482;74;1154;-70
2021/12/16 11:15:44;;;;;;;;;;;24.10;50.20;;;;;;1558327;76;750;-71
2021/12/16 11:17:51;;;;;;;;;;;24.10;50.10;;;;;;1565403;74;711;-73
2021/12/16 11:19:57;;;;;;;;;;;24.10;50.20;;;;;;1567949;74;776;-69
2021/12/16 11:22:06;;;;;;;;;;;24.10;50.10;;;;;;1565304;74;816;-71
2021/12/16 11:24:24;;;;;;;;;;;24.10;50.10;;;;;;1559296;74;788;-70
2021/12/16 11:26:29;;;;;;;;;;;24.10;50.10;;;;;;1558879;74;780;-69
2021/12/16 11:28:32;;;;;;;;;;;24.10;50.10;;;;;;1547630;74;807;-70
2021/12/16 11:30:36;;;;;;;;;;;24.10;50.10;;;;;;1557723;76;1932;-69
2021/12/16 11:32:42;;;;;;;;;;;24.10;50.10;;;;;;1558243;76;1104;-71
2021/12/16 11:34:44;;;;;;;;;;;24.10;50.00;;;;;;1555832;74;1791;-70
2021/12/16 11:36:46;;;;;;;;;;;24.10;50.10;;;;;;1555538;74;791;-68
2021/12/16 11:38:49;;;;;;;;;;;24.10;50.00;;;;;;1562929;76;782;-69
2021/12/16 11:40:59;;;;;;;;;;;24.10;50.00;;;;;;1562410;76;807;-69
2021/12/16 11:43:02;;;;;;;;;;;24.20;50.00;;;;;;1550008;74;1189;-68
2021/12/16 11:45:05;;;;;;;;;;;24.20;50.00;;;;;;1563141;75;705;-67
2021/12/16 11:47:07;;;;;;;;;;;24.10;49.90;;;;;;1557150;76;719;-68
2021/12/16 11:49:11;;;;;;;;;;;24.10;49.80;;;;;;1560593;75;1938;-67
2021/12/16 11:51:14;;;;;;;;;;;24.20;49.80;;;;;;1562045;76;1884;-67
2021/12/16 11:53:16;;;;;;;;;;;24.20;49.80;;;;;;1564381;76;1176;-67
2021/12/16 11:55:19;;;;;;;;;;;24.20;49.80;;;;;;1552538;75;821;-67
2021/12/16 11:57:24;;;;;;;;;;;24.20;49.80;;;;;;1567629;74;791;-69
2021/12/16 11:59:33;;;;;;;;;;;24.20;49.80;;;;;;1566803;76;1070;-67
2021/12/16 12:01:36;;;;;;;;;;;24.20;49.70;;;;;;1561384;76;1779;-67
2021/12/16 12:03:38;;;;;;;;;;;24.20;49.70;;;;;;1565205;76;1158;-67
2021/12/16 12:05:44;;;;;;;;;;;24.20;49.70;;;;;;1566885;74;828;-69
2021/12/16 12:07:48;;;;;;;;;;;24.20;49.70;;;;;;1562528;76;724;-67
2021/12/16 12:09:52;;;;;;;;;;;24.20;49.70;;;;;;1560372;74;1915;-67
2021/12/16 12:11:54;;;;;;;;;;;24.20;49.60;;;;;;1567524;74;770;-67
2021/12/16 12:13:57;;;;;;;;;;;24.20;49.60;;;;;;1566201;74;1124;-72
2021/12/16 12:16:01;;;;;;;;;;;24.20;49.70;;;;;;1565020;74;822;-67
2021/12/16 12:18:05;;;;;;;;;;;24.20;49.60;;;;;;1562368;74;722;-67
2021/12/16 12:20:07;;;;;;;;;;;24.20;49.60;;;;;;1559813;76;704;-68
2021/12/16 12:22:09;;;;;;;;;;;24.20;49.70;;;;;;1566957;76;1152;-68
2021/12/16 12:24:12;;;;;;;;;;;24.20;49.60;;;;;;1567404;75;731;-69
2021/12/16 12:26:16;;;;;;;;;;;24.20;49.60;;;;;;1557913;74;832;-67
2021/12/16 12:28:18;;;;;;;;;;;24.10;49.60;;;;;;1559866;76;763;-67
2021/12/16 12:30:20;;;;;;;;;;;24.20;49.60;;;;;;1553487;74;1945;-67
2021/12/16 12:32:23;;;;;;;;;;;24.20;49.50;;;;;;1557140;76;1146;-67
2021/12/16 12:34:25;;;;;;;;;;;24.20;49.50;;;;;;1557315;74;718;-67
2021/12/16 12:36:27;;;;;;;;;;;24.20;49.50;;;;;;1561789;76;720;-68
2021/12/16 12:38:29;;;;;;;;;;;24.20;49.50;;;;;;1559408;76;685;-68
2021/12/16 12:40:32;;;;;;;;;;;24.20;49.40;;;;;;1560472;76;770;-69
2021/12/16 12:42:34;;;;;;;;;;;24.20;49.40;;;;;;1561491;76;1297;-68
2021/12/16 12:44:36;;;;;;;;;;;24.20;49.40;;;;;;1557851;74;791;-69
2021/12/16 12:46:39;;;;;;;;;;;24.20;49.40;;;;;;1558519;76;746;-71
2021/12/16 12:48:41;;;;;;;;;;;24.10;49.50;;;;;;1560461;74;689;-68
2021/12/16 12:50:44;;;;;;;;;;;24.20;49.50;;;;;;1565217;74;1934;-68
2021/12/16 12:52:49;;;;;;;;;;;24.10;49.40;;;;;;1553302;76;1196;-68
2021/12/16 12:55:00;;;;;;;;;;;24.10;49.50;;;;;;1555951;75;1876;-67
2021/12/16 12:57:03;;;;;;;;;;;24.10;49.50;;;;;;1563114;74;1775;-68
2021/12/16 12:59:11;;;;;;;;;;;24.10;49.50;;;;;;1562334;76;1137;-68
2021/12/16 13:01:10;;;;;;;;;;;24.10;49.50;;;;;;1557326;76;1573;-66
2021/12/16 13:03:17;;;;;;;;;;;24.10;49.60;;;;;;1563072;74;1178;-65
2021/12/16 13:05:18;;;;;;;;;;;24.00;49.40;;;;;;1558244;76;1642;-68
2021/12/16 13:07:21;;;;;;;;;;;24.10;49.60;;;;;;1556296;76;759;-65
2021/12/16 13:09:25;;;;;;;;;;;24.00;49.40;;;;;;1534410;77;1076;-68
2021/12/16 13:11:27;;;;;;;;;;;24.00;49.50;;;;;;1556996;76;1946;-66
2021/12/16 13:13:34;;;;;;;;;;;24.00;49.40;;;;;;1547370;74;1146;-65
2021/12/16 13:27:13;;;;;;;;;;;24.10;49.70;;;;;;1560266;74;1661;-65
2021/12/16 13:29:20;;;;;;;;;;;24.00;49.60;;;;;;1553098;74;1635;-68
2021/12/16 13:31:28;;;;;;;;;;;24.00;49.60;;;;;;1560885;76;1922;-65
2021/12/16 13:33:38;;;;;;;;;;;24.00;49.60;;;;;;1560442;74;1145;-65
2021/12/16 13:35:46;;;;;;;;;;;24.00;49.60;;;;;;1564590;76;1868;-66
2021/12/16 13:37:44;;;;;;;;;;;24.00;49.60;;;;;;1556727;75;1685;-70
2021/12/16 13:39:46;;;;;;;;;;;24.00;49.60;;;;;;1566361;76;731;-66
2021/12/16 13:41:58;;;;;;;;;;;24.10;49.70;;;;;;1554780;74;817;-65
2021/12/16 13:44:04;;;;;;;;;;;24.00;49.50;;;;;;1563750;76;1148;-66
2021/12/16 13:46:28;;;;;;;;;;;24.00;49.60;;;;;;1559538;74;1688;-65
2021/12/16 14:04:57;;;;;;;;;;;24.00;49.70;;;;;;1556667;76;1717;-65
2021/12/16 14:07:00;;;;;;;;;;;24.10;49.80;;;;;;1557272;75;1576;-65
2021/12/16 14:09:01;;;;;;;;;;;24.00;49.70;;;;;;1552622;76;1661;-65
2021/12/16 14:11:29;;;;;;;;;;;24.00;49.70;;;;;;1557892;74;1920;-67
2021/12/16 14:15:57;;;;;;;;;;;24.10;49.90;;;;;;1555469;74;805;-65
2021/12/16 14:17:57;;;;;;;;;;;24.00;49.70;;;;;;1562258;74;1775;-66
2021/12/16 14:27:21;;;;;;;;;;;24.20;49.90;;;;;;1554637;74;1667;-65
2021/12/16 14:36:19;;;;;;;;;;;24.00;49.40;;;;;;1555208;74;871;-69
2021/12/16 14:39:06;;;;;;;;;;;24.00;49.40;;;;;;1560158;74;1270;-68
2021/12/16 14:40:27;;;;;;;;;;;24.00;49.40;;;;;;1537056;76;1418;-67
2021/12/16 14:42:41;;;;;;;;;;;24.00;49.50;;;;;;1552624;76;1681;-68
2021/12/16 14:46:26;;;;;;;;;;;24.10;49.60;;;;;;1573976;74;841;-66
2021/12/16 14:48:32;;;;;;;;;;;24.00;49.50;;;;;;1570694;74;715;-65
2021/12/16 14:50:39;;;;;;;;;;;24.00;49.40;;;;;;1565762;74;1927;-68
2021/12/16 14:52:41;;;;;;;;;;;24.00;49.50;;;;;;1560271;74;2085;-68
2021/12/16 14:54:47;;;;;;;;;;;24.00;49.80;;;;;;1548329;74;1209;-67
2021/12/16 14:56:49;;;;;;;;;;;24.00;49.80;;;;;;1548493;75;744;-64
2021/12/16 14:58:51;;;;;;;;;;;24.10;50.00;;;;;;1562213;75;761;-66
2021/12/16 15:00:58;;;;;;;;;;;24.20;49.90;;;;;;1570650;75;790;-66
2021/12/16 15:03:02;;;;;;;;;;;24.10;49.80;;;;;;1552723;75;1873;-64
2021/12/16 15:05:04;;;;;;;;;;;24.20;49.70;;;;;;1546737;75;820;-64
2021/12/16 15:07:08;;;;;;;;;;;24.10;49.80;;;;;;1553973;75;727;-64
2021/12/16 15:09:19;;;;;;;;;;;24.10;50.00;;;;;;1551584;75;1709;-64
2021/12/16 15:11:17;;;;;;;;;;;24.10;49.90;;;;;;1549625;75;1908;-66
2021/12/16 15:13:29;;;;;;;;;;;24.20;49.90;;;;;;1547487;75;1858;-64
2021/12/16 15:15:32;;;;;;;;;;;24.10;50.00;;;;;;1545807;75;1702;-64
2021/12/16 15:39:03;;;;;;;;;;;24.00;49.80;;;;;;1550900;75;845;-64
2021/12/16 15:42:44;;;;;;;;;;;23.90;49.80;;;;;;1541051;75;1716;-65
2021/12/16 15:43:01;;;;;;;;;;;23.90;49.70;;;;;;1541697;75;1423;-65
2021/12/16 15:45:05;;;;;;;;;;;24.00;49.70;;;;;;1541839;75;763;-64
2021/12/16 15:47:07;;;;;;;;;;;24.00;49.60;;;;;;1542685;75;757;-65